Terminal Aerodrome Forecast
Issued by NWS

Home | Current Version | Previous Version | Text Only | Print | Product List | Glossary Off
Versions: 1 2 3 4 5 6 7 8 9 10 11 12 13

469
FTUS43 KTOP 181338 AAA
TAFFOE
TAF AMD
KFOE 181338Z 1814/1912 14007KT 5SM -TSRA BKN003CB
     FM181600 15008KT 5SM -SHRA VCTS OVC015CB
     FM181900 16009KT P6SM VCTS BKN035CB
     FM182300 17006KT P6SM SCT025 BKN150=

USA.gov is the U.S. government's official web portal to all federal, state and local government web resources and services.